sensor_id;sensor_type;location;lat;lon;timestamp;pressure;altitude;pressure_sealevel;temperature;humidity
39301;BME280;25019;42.626;23.380;2024-01-30T00:01:58;96362.53;;;-1.90;88.63
39301;BME280;25019;42.626;23.380;2024-01-30T00:04:24;96361.31;;;-1.86;88.75
39301;BME280;25019;42.626;23.380;2024-01-30T00:06:50;96333.53;;;-1.97;89.13
39301;BME280;25019;42.626;23.380;2024-01-30T00:09:16;96340.03;;;-1.91;88.93
39301;BME280;25019;42.626;23.380;2024-01-30T00:11:42;96357.72;;;-1.73;88.12
39301;BME280;25019;42.626;23.380;2024-01-30T00:14:07;96351.09;;;-1.77;87.77
39301;BME280;25019;42.626;23.380;2024-01-30T00:16:33;96363.19;;;-1.76;87.36
39301;BME280;25019;42.626;23.380;2024-01-30T00:18:59;96327.88;;;-2.02;87.67
39301;BME280;25019;42.626;23.380;2024-01-30T00:21:27;96364.13;;;-1.77;87.80
39301;BME280;25019;42.626;23.380;2024-01-30T00:23:53;96368.38;;;-1.76;87.70
39301;BME280;25019;42.626;23.380;2024-01-30T00:26:18;96344.38;;;-1.91;87.25
39301;BME280;25019;42.626;23.380;2024-01-30T00:28:44;96374.19;;;-1.73;87.20
39301;BME280;25019;42.626;23.380;2024-01-30T00:31:10;96368.38;;;-1.76;87.18
39301;BME280;25019;42.626;23.380;2024-01-30T00:33:39;96328.34;;;-2.08;87.36
39301;BME280;25019;42.626;23.380;2024-01-30T00:36:05;96380.13;;;-1.82;86.87
39301;BME280;25019;42.626;23.380;2024-01-30T00:38:32;96302.25;;;-2.41;86.96
39301;BME280;25019;42.626;23.380;2024-01-30T00:40:58;96378.38;;;-1.93;86.93
39301;BME280;25019;42.626;23.380;2024-01-30T00:43:24;96375.88;;;-1.94;86.74
39301;BME280;25019;42.626;23.380;2024-01-30T00:45:53;96367.41;;;-1.97;87.17
39301;BME280;25019;42.626;23.380;2024-01-30T00:48:19;96370.94;;;-1.98;87.06
39301;BME280;25019;42.626;23.380;2024-01-30T00:50:45;96368.44;;;-1.99;86.82
39301;BME280;25019;42.626;23.380;2024-01-30T00:53:10;96361.34;;;-2.08;86.71
39301;BME280;25019;42.626;23.380;2024-01-30T00:55:36;96354.28;;;-2.18;86.89
39301;BME280;25019;42.626;23.380;2024-01-30T00:58:02;96369.44;;;-2.12;87.00
39301;BME280;25019;42.626;23.380;2024-01-30T01:00:28;96339.75;;;-2.32;87.45
39301;BME280;25019;42.626;23.380;2024-01-30T01:02:55;96355.13;;;-2.29;87.37
39301;BME280;25019;42.626;23.380;2024-01-30T01:05:20;96356.78;;;-2.28;87.67
39301;BME280;25019;42.626;23.380;2024-01-30T01:07:46;96352.88;;;-2.33;87.55
39301;BME280;25019;42.626;23.380;2024-01-30T01:10:13;96291.16;;;-2.77;87.27
39301;BME280;25019;42.626;23.380;2024-01-30T01:12:39;96364.94;;;-2.32;87.29
39301;BME280;25019;42.626;23.380;2024-01-30T01:15:05;96358.19;;;-2.35;87.83
39301;BME280;25019;42.626;23.380;2024-01-30T01:17:34;96344.38;;;-2.47;87.79
39301;BME280;25019;42.626;23.380;2024-01-30T01:20:01;96360.66;;;-2.33;87.40
39301;BME280;25019;42.626;23.380;2024-01-30T01:22:27;96364.13;;;-2.33;87.60
39301;BME280;25019;42.626;23.380;2024-01-30T01:24:53;96364.13;;;-2.33;87.73
39301;BME280;25019;42.626;23.380;2024-01-30T01:27:19;96355.38;;;-2.32;87.22
39301;BME280;25019;42.626;23.380;2024-01-30T01:29:44;96337.75;;;-2.51;87.11
39301;BME280;25019;42.626;23.380;2024-01-30T01:32:11;96267.88;;;-2.90;87.06
39301;BME280;25019;42.626;23.380;2024-01-30T01:34:36;96326.25;;;-2.48;86.62
39301;BME280;25019;42.626;23.380;2024-01-30T01:37:02;96338.69;;;-2.41;86.68
39301;BME280;25019;42.626;23.380;2024-01-30T01:39:28;96309.59;;;-2.57;87.18
39301;BME280;25019;42.626;23.380;2024-01-30T01:41:53;96366.94;;;-2.13;87.22
39301;BME280;25019;42.626;23.380;2024-01-30T01:44:19;96367.41;;;-2.08;86.48
39301;BME280;25019;42.626;23.380;2024-01-30T01:46:45;96359.72;;;-2.09;86.18
39301;BME280;25019;42.626;23.380;2024-01-30T01:49:10;96361.59;;;-2.00;86.08
39301;BME280;25019;42.626;23.380;2024-01-30T01:51:37;96282.72;;;-2.46;85.46
39301;BME280;25019;42.626;23.380;2024-01-30T01:54:04;96372.94;;;-1.90;85.56
39301;BME280;25019;42.626;23.380;2024-01-30T01:56:33;96346.00;;;-2.12;84.82
39301;BME280;25019;42.626;23.380;2024-01-30T01:59:05;96370.81;;;-2.07;85.35
39301;BME280;25019;42.626;23.380;2024-01-30T02:01:38;96374.38;;;-2.08;85.49
39301;BME280;25019;42.626;23.380;2024-01-30T02:04:07;96375.69;;;-2.14;85.41
39301;BME280;25019;42.626;23.380;2024-01-30T02:06:33;96373.78;;;-2.12;85.53
39301;BME280;25019;42.626;23.380;2024-01-30T02:08:59;96376.03;;;-2.07;86.27
39301;BME280;25019;42.626;23.380;2024-01-30T02:11:25;96352.38;;;-2.16;86.08
39301;BME280;25019;42.626;23.380;2024-01-30T02:13:51;96373.09;;;-2.03;85.55
39301;BME280;25019;42.626;23.380;2024-01-30T02:16:16;96309.84;;;-2.37;84.86
39301;BME280;25019;42.626;23.380;2024-01-30T02:18:45;96365.38;;;-2.04;84.39
39301;BME280;25019;42.626;23.380;2024-01-30T02:21:16;96370.44;;;-1.91;84.99
39301;BME280;25019;42.626;23.380;2024-01-30T02:23:46;96336.50;;;-2.01;84.61
39301;BME280;25019;42.626;23.380;2024-01-30T02:26:12;96363.19;;;-1.76;84.35
39301;BME280;25019;42.626;23.380;2024-01-30T02:28:38;96371.06;;;-1.67;84.18
39301;BME280;25019;42.626;23.380;2024-01-30T02:31:05;96368.84;;;-1.60;83.78
39301;BME280;25019;42.626;23.380;2024-01-30T02:33:30;96350.63;;;-1.71;83.11
39301;BME280;25019;42.626;23.380;2024-01-30T02:35:56;96387.78;;;-1.58;82.43
39301;BME280;25019;42.626;23.380;2024-01-30T02:38:22;96306.31;;;-2.04;80.88
39301;BME280;25019;42.626;23.380;2024-01-30T02:40:49;96374.84;;;-1.59;80.60
39301;BME280;25019;42.626;23.380;2024-01-30T02:43:16;96362.22;;;-1.64;80.59
39301;BME280;25019;42.626;23.380;2024-01-30T02:45:42;96308.31;;;-1.96;80.59
39301;BME280;25019;42.626;23.380;2024-01-30T02:48:08;96357.81;;;-1.63;80.57
39301;BME280;25019;42.626;23.380;2024-01-30T02:50:33;96373.28;;;-1.51;80.49
39301;BME280;25019;42.626;23.380;2024-01-30T02:52:59;96370.31;;;-1.46;80.89
39301;BME280;25019;42.626;23.380;2024-01-30T02:55:25;96372.78;;;-1.44;80.45
39301;BME280;25019;42.626;23.380;2024-01-30T02:57:51;96290.41;;;-1.89;79.87
39301;BME280;25019;42.626;23.380;2024-01-30T03:00:16;96366.25;;;-1.39;80.08
39301;BME280;25019;42.626;23.380;2024-01-30T03:02:42;96360.22;;;-1.39;79.92
39301;BME280;25019;42.626;23.380;2024-01-30T03:05:08;96310.47;;;-1.69;79.24
39301;BME280;25019;42.626;23.380;2024-01-30T03:07:34;96363.84;;;-1.30;79.07
39301;BME280;25019;42.626;23.380;2024-01-30T03:09:59;96362.66;;;-1.26;78.32
39301;BME280;25019;42.626;23.380;2024-01-30T03:12:25;96365.09;;;-1.25;78.67
39301;BME280;25019;42.626;23.380;2024-01-30T03:14:51;96351.75;;;-1.31;78.35
39301;BME280;25019;42.626;23.380;2024-01-30T03:17:16;96366.75;;;-1.24;78.41
39301;BME280;25019;42.626;23.380;2024-01-30T03:19:42;96287.97;;;-1.70;78.46
39301;BME280;25019;42.626;23.380;2024-01-30T03:22:08;96355.78;;;-1.27;77.88
39301;BME280;25019;42.626;23.380;2024-01-30T03:24:33;96347.84;;;-1.26;78.07
39301;BME280;25019;42.626;23.380;2024-01-30T03:26:59;96209.53;;;-2.09;78.23
39301;BME280;25019;42.626;23.380;2024-01-30T03:29:25;96358.13;;;-1.24;78.15
39301;BME280;25019;42.626;23.380;2024-01-30T03:31:50;96360.41;;;-1.31;78.40
39301;BME280;25019;42.626;23.380;2024-01-30T03:34:16;96354.69;;;-1.25;77.81
39301;BME280;25019;42.626;23.380;2024-01-30T03:36:42;96358.38;;;-1.27;77.52
39301;BME280;25019;42.626;23.380;2024-01-30T03:39:08;96344.25;;;-1.46;77.64
39301;BME280;25019;42.626;23.380;2024-01-30T03:41:33;96333.81;;;-1.46;78.00
39301;BME280;25019;42.626;23.380;2024-01-30T03:43:59;96351.31;;;-1.37;77.81
39301;BME280;25019;42.626;23.380;2024-01-30T03:46:25;96295.53;;;-1.67;77.95
39301;BME280;25019;42.626;23.380;2024-01-30T03:48:50;96352.16;;;-1.36;78.06
39301;BME280;25019;42.626;23.380;2024-01-30T03:51:16;96346.63;;;-1.43;76.34
39301;BME280;25019;42.626;23.380;2024-01-30T03:53:42;96349.53;;;-1.36;75.75
39301;BME280;25019;42.626;23.380;2024-01-30T03:56:08;96331.34;;;-1.47;76.14
39301;BME280;25019;42.626;23.380;2024-01-30T03:58:34;96334.63;;;-1.45;75.46
39301;BME280;25019;42.626;23.380;2024-01-30T04:01:00;96346.38;;;-1.40;75.08
39301;BME280;25019;42.626;23.380;2024-01-30T04:03:25;96352.00;;;-1.56;72.30
39301;BME280;25019;42.626;23.380;2024-01-30T04:05:52;96315.47;;;-1.77;73.35
39301;BME280;25019;42.626;23.380;2024-01-30T04:08:17;96225.31;;;-2.22;74.29
39301;BME280;25019;42.626;23.380;2024-01-30T04:10:43;96338.19;;;-1.46;74.70
39301;BME280;25019;42.626;23.380;2024-01-30T04:13:09;96343.47;;;-1.37;75.30
39301;BME280;25019;42.626;23.380;2024-01-30T04:15:34;96338.78;;;-1.43;75.44
39301;BME280;25019;42.626;23.380;2024-01-30T04:18:00;96302.06;;;-1.72;73.36
39301;BME280;25019;42.626;23.380;2024-01-30T04:20:26;96285.72;;;-1.74;72.66
39301;BME280;25019;42.626;23.380;2024-01-30T04:22:52;96334.84;;;-1.37;72.58
39301;BME280;25019;42.626;23.380;2024-01-30T04:25:17;96345.31;;;-1.48;72.07
39301;BME280;25019;42.626;23.380;2024-01-30T04:27:43;96344.13;;;-1.44;72.72
39301;BME280;25019;42.626;23.380;2024-01-30T04:30:09;96335.84;;;-1.49;73.29
39301;BME280;25019;42.626;23.380;2024-01-30T04:32:35;96352.78;;;-1.44;73.53
39301;BME280;25019;42.626;23.380;2024-01-30T04:35:01;96332.59;;;-1.63;72.94
39301;BME280;25019;42.626;23.380;2024-01-30T04:37:27;96346.31;;;-1.61;73.63
39301;BME280;25019;42.626;23.380;2024-01-30T04:39:53;96319.97;;;-1.79;74.34
39301;BME280;25019;42.626;23.380;2024-01-30T04:42:18;96342.56;;;-1.68;74.50
39301;BME280;25019;42.626;23.380;2024-01-30T04:44:44;96333.25;;;-1.82;74.77
39301;BME280;25019;42.626;23.380;2024-01-30T04:47:09;96356.66;;;-1.71;74.32
39301;BME280;25019;42.626;23.380;2024-01-30T04:49:40;96346.41;;;-1.84;73.06
39301;BME280;25019;42.626;23.380;2024-01-30T04:52:06;96359.28;;;-1.82;72.38
39301;BME280;25019;42.626;23.380;2024-01-30T04:54:33;96350.44;;;-1.91;72.21
39301;BME280;25019;42.626;23.380;2024-01-30T04:56:58;96359.06;;;-1.90;72.70
39301;BME280;25019;42.626;23.380;2024-01-30T04:59:24;96357.44;;;-2.03;72.53
39301;BME280;25019;42.626;23.380;2024-01-30T05:01:50;96368.69;;;-2.02;72.94
39301;BME280;25019;42.626;23.380;2024-01-30T05:04:16;96356.41;;;-2.23;72.13
39301;BME280;25019;42.626;23.380;2024-01-30T05:06:41;96328.28;;;-2.41;72.37
39301;BME280;25019;42.626;23.380;2024-01-30T05:09:07;96356.78;;;-2.28;73.17
39301;BME280;25019;42.626;23.380;2024-01-30T05:11:41;96368.47;;;-2.22;73.89
39301;BME280;25019;42.626;23.380;2024-01-30T05:14:07;96373.69;;;-2.22;74.41
39301;BME280;25019;42.626;23.380;2024-01-30T05:16:34;96376.06;;;-2.30;75.76
39301;BME280;25019;42.626;23.380;2024-01-30T05:19:00;96363.16;;;-2.43;76.29
39301;BME280;25019;42.626;23.380;2024-01-30T05:21:26;96316.94;;;-2.74;75.98
39301;BME280;25019;42.626;23.380;2024-01-30T05:23:52;96383.28;;;-2.34;76.11
39301;BME280;25019;42.626;23.380;2024-01-30T05:26:17;96371.09;;;-2.33;76.38
39301;BME280;25019;42.626;23.380;2024-01-30T05:28:44;96379.50;;;-2.30;76.66
39301;BME280;25019;42.626;23.380;2024-01-30T05:31:13;96381.25;;;-2.30;76.40
39301;BME280;25019;42.626;23.380;2024-01-30T05:33:39;96326.75;;;-2.66;76.94
39301;BME280;25019;42.626;23.380;2024-01-30T05:36:05;96387.88;;;-2.26;77.04
39301;BME280;25019;42.626;23.380;2024-01-30T05:38:31;96333.75;;;-2.66;77.95
39301;BME280;25019;42.626;23.380;2024-01-30T05:40:57;96333.84;;;-2.68;79.41
39301;BME280;25019;42.626;23.380;2024-01-30T05:43:25;96396.53;;;-2.37;79.58
39301;BME280;25019;42.626;23.380;2024-01-30T05:45:52;96393.94;;;-2.37;79.29
39301;BME280;25019;42.626;23.380;2024-01-30T05:48:18;96368.97;;;-2.51;79.14
39301;BME280;25019;42.626;23.380;2024-01-30T05:50:43;96395.00;;;-2.39;79.82
39301;BME280;25019;42.626;23.380;2024-01-30T05:53:10;96398.56;;;-2.41;80.04
39301;BME280;25019;42.626;23.380;2024-01-30T05:55:36;96340.94;;;-2.70;79.03
39301;BME280;25019;42.626;23.380;2024-01-30T05:58:02;96381.50;;;-2.45;79.23
39301;BME280;25019;42.626;23.380;2024-01-30T06:00:28;96393.81;;;-2.47;79.52
39301;BME280;25019;42.626;23.380;2024-01-30T06:02:53;96346.63;;;-2.65;79.08
39301;BME280;25019;42.626;23.380;2024-01-30T06:05:19;96367.31;;;-2.52;79.07
39301;BME280;25019;42.626;23.380;2024-01-30T06:07:44;96372.06;;;-2.46;79.46
39301;BME280;25019;42.626;23.380;2024-01-30T06:10:10;96367.19;;;-2.50;79.01
39301;BME280;25019;42.626;23.380;2024-01-30T06:12:36;96387.78;;;-2.36;79.36
39301;BME280;25019;42.626;23.380;2024-01-30T06:15:02;96384.00;;;-2.32;79.52
39301;BME280;25019;42.626;23.380;2024-01-30T06:17:28;96387.31;;;-2.30;79.26
39301;BME280;25019;42.626;23.380;2024-01-30T06:19:54;96393.66;;;-2.22;79.87
39301;BME280;25019;42.626;23.380;2024-01-30T06:22:19;96396.19;;;-2.09;82.80
39301;BME280;25019;42.626;23.380;2024-01-30T06:24:45;96393.53;;;-1.98;82.23
39301;BME280;25019;42.626;23.380;2024-01-30T06:27:13;96336.91;;;-2.40;78.80
39301;BME280;25019;42.626;23.380;2024-01-30T06:29:40;96393.44;;;-1.97;79.14
39301;BME280;25019;42.626;23.380;2024-01-30T06:32:06;96391.88;;;-1.88;78.73
39301;BME280;25019;42.626;23.380;2024-01-30T06:34:32;96387.00;;;-1.81;78.25
39301;BME280;25019;42.626;23.380;2024-01-30T06:36:57;96396.59;;;-1.82;76.57
39301;BME280;25019;42.626;23.380;2024-01-30T06:39:23;96388.19;;;-1.74;76.02
39301;BME280;25019;42.626;23.380;2024-01-30T06:41:49;96376.81;;;-1.84;75.79
39301;BME280;25019;42.626;23.380;2024-01-30T06:44:14;96395.16;;;-1.74;74.52
39301;BME280;25019;42.626;23.380;2024-01-30T06:46:40;96343.03;;;-2.07;74.55
39301;BME280;25019;42.626;23.380;2024-01-30T06:49:06;96386.88;;;-1.79;74.42
39301;BME280;25019;42.626;23.380;2024-01-30T06:51:31;96408.53;;;-1.68;74.57
39301;BME280;25019;42.626;23.380;2024-01-30T06:53:57;96396.56;;;-1.70;74.28
39301;BME280;25019;42.626;23.380;2024-01-30T06:56:24;96394.34;;;-1.75;73.88
39301;BME280;25019;42.626;23.380;2024-01-30T06:58:50;96402.47;;;-1.57;77.20
39301;BME280;25019;42.626;23.380;2024-01-30T07:01:16;96395.47;;;-1.56;74.61
39301;BME280;25019;42.626;23.380;2024-01-30T07:03:42;96406.97;;;-1.59;72.99
39301;BME280;25019;42.626;23.380;2024-01-30T07:06:09;96411.56;;;-1.62;71.99
39301;BME280;25019;42.626;23.380;2024-01-30T07:08:37;96404.13;;;-1.67;71.16
39301;BME280;25019;42.626;23.380;2024-01-30T07:11:06;96399.38;;;-1.62;70.94
39301;BME280;25019;42.626;23.380;2024-01-30T07:13:32;96403.53;;;-1.59;70.38
39301;BME280;25019;42.626;23.380;2024-01-30T07:15:58;96402.22;;;-1.54;70.47
39301;BME280;25019;42.626;23.380;2024-01-30T07:18:24;96396.47;;;-1.36;73.40
39301;BME280;25019;42.626;23.380;2024-01-30T07:20:49;96388.84;;;-1.28;71.13
39301;BME280;25019;42.626;23.380;2024-01-30T07:23:16;96408.84;;;-1.17;69.28
39301;BME280;25019;42.626;23.380;2024-01-30T07:25:46;96404.63;;;-1.08;68.87
39301;BME280;25019;42.626;23.380;2024-01-30T07:28:14;96333.00;;;-1.46;69.00
39301;BME280;25019;42.626;23.380;2024-01-30T07:30:42;96410.16;;;-1.01;68.93
39301;BME280;25019;42.626;23.380;2024-01-30T07:33:08;96403.59;;;-0.96;67.82
39301;BME280;25019;42.626;23.380;2024-01-30T07:35:35;96398.34;;;-1.06;67.83
39301;BME280;25019;42.626;23.380;2024-01-30T07:38:00;96409.59;;;-1.05;68.70
39301;BME280;25019;42.626;23.380;2024-01-30T07:40:26;96394.25;;;-1.19;67.39
39301;BME280;25019;42.626;23.380;2024-01-30T07:42:53;96355.34;;;-1.65;67.58
39301;BME280;25019;42.626;23.380;2024-01-30T07:45:19;96401.00;;;-1.17;67.19
39301;BME280;25019;42.626;23.380;2024-01-30T07:47:50;96403.72;;;-1.18;67.70
39301;BME280;25019;42.626;23.380;2024-01-30T07:50:15;96402.59;;;-1.04;67.58
39301;BME280;25019;42.626;23.380;2024-01-30T07:52:42;96405.38;;;-1.17;67.64
39301;BME280;25019;42.626;23.380;2024-01-30T07:55:08;96406.34;;;-1.18;68.36
39301;BME280;25019;42.626;23.380;2024-01-30T07:57:34;96410.31;;;-1.36;68.65
39301;BME280;25019;42.626;23.380;2024-01-30T08:00:00;96383.47;;;-1.47;69.23
39301;BME280;25019;42.626;23.380;2024-01-30T08:02:26;96385.16;;;-1.25;68.59
39301;BME280;25019;42.626;23.380;2024-01-30T08:04:51;96400.59;;;-1.33;68.91
39301;BME280;25019;42.626;23.380;2024-01-30T08:07:17;96402.06;;;-1.19;68.84
39301;BME280;25019;42.626;23.380;2024-01-30T08:09:43;96350.88;;;-1.42;68.39
39301;BME280;25019;42.626;23.380;2024-01-30T08:12:09;96391.97;;;-1.13;68.61
39301;BME280;25019;42.626;23.380;2024-01-30T08:14:35;96390.06;;;-1.11;68.23
39301;BME280;25019;42.626;23.380;2024-01-30T08:17:01;96398.09;;;-1.02;68.35
39301;BME280;25019;42.626;23.380;2024-01-30T08:19:26;96398.13;;;-0.93;68.49
39301;BME280;25019;42.626;23.380;2024-01-30T08:21:52;96393.97;;;-0.84;67.48
39301;BME280;25019;42.626;23.380;2024-01-30T08:24:18;96355.84;;;-0.96;68.71
39301;BME280;25019;42.626;23.380;2024-01-30T08:26:43;96385.25;;;-0.73;67.63
39301;BME280;25019;42.626;23.380;2024-01-30T08:29:09;96399.34;;;-0.76;67.09
39301;BME280;25019;42.626;23.380;2024-01-30T08:31:35;96374.72;;;-0.83;67.41
39301;BME280;25019;42.626;23.380;2024-01-30T08:34:00;96309.09;;;-1.09;67.44
39301;BME280;25019;42.626;23.380;2024-01-30T08:36:26;96386.81;;;-0.61;67.35
39301;BME280;25019;42.626;23.380;2024-01-30T08:38:51;96390.66;;;-0.55;66.90
39301;BME280;25019;42.626;23.380;2024-01-30T08:41:17;96394.59;;;-0.39;66.71
39301;BME280;25019;42.626;23.380;2024-01-30T08:43:43;96402.75;;;-0.33;67.36
39301;BME280;25019;42.626;23.380;2024-01-30T08:46:10;96404.47;;;-0.12;66.80
39301;BME280;25019;42.626;23.380;2024-01-30T08:48:36;96407.06;;;-0.12;65.32
39301;BME280;25019;42.626;23.380;2024-01-30T08:51:02;96409.88;;;-0.04;64.99
39301;BME280;25019;42.626;23.380;2024-01-30T08:53:27;96398.94;;;0.22;63.35
39301;BME280;25019;42.626;23.380;2024-01-30T08:55:53;96352.84;;;0.11;62.81
39301;BME280;25019;42.626;23.380;2024-01-30T08:58:19;96382.75;;;0.58;62.90
39301;BME280;25019;42.626;23.380;2024-01-30T09:00:45;96412.34;;;0.58;61.89
39301;BME280;25019;42.626;23.380;2024-01-30T09:03:10;96410.69;;;0.48;62.34
39301;BME280;25019;42.626;23.380;2024-01-30T09:05:36;96411.38;;;0.40;62.53
39301;BME280;25019;42.626;23.380;2024-01-30T09:08:02;96399.63;;;0.34;61.63
39301;BME280;25019;42.626;23.380;2024-01-30T09:10:28;96410.38;;;0.31;61.97
39301;BME280;25019;42.626;23.380;2024-01-30T09:12:53;96335.13;;;-0.26;61.80
39301;BME280;25019;42.626;23.380;2024-01-30T09:15:19;96386.31;;;0.47;62.04
39301;BME280;25019;42.626;23.380;2024-01-30T09:17:45;96400.78;;;0.61;61.31
39301;BME280;25019;42.626;23.380;2024-01-30T09:20:10;96396.34;;;0.32;61.54
39301;BME280;25019;42.626;23.380;2024-01-30T09:22:37;96395.38;;;0.33;61.71
39301;BME280;25019;42.626;23.380;2024-01-30T09:25:02;96392.81;;;0.53;62.28
39301;BME280;25019;42.626;23.380;2024-01-30T09:27:28;96337.75;;;0.25;61.79
39301;BME280;25019;42.626;23.380;2024-01-30T09:29:54;96380.53;;;0.34;60.90
39301;BME280;25019;42.626;23.380;2024-01-30T09:32:20;96377.75;;;0.25;61.51
39301;BME280;25019;42.626;23.380;2024-01-30T09:34:45;96364.25;;;0.20;61.94
39301;BME280;25019;42.626;23.380;2024-01-30T09:37:11;96282.09;;;-0.17;61.73
39301;BME280;25019;42.626;23.380;2024-01-30T09:39:37;96392.25;;;0.59;61.62
39301;BME280;25019;42.626;23.380;2024-01-30T09:42:07;96388.28;;;0.65;59.92
39301;BME280;25019;42.626;23.380;2024-01-30T09:44:37;96332.19;;;0.08;60.71
39301;BME280;25019;42.626;23.380;2024-01-30T09:47:04;96299.59;;;-0.17;61.55
39301;BME280;25019;42.626;23.380;2024-01-30T09:49:34;96395.69;;;0.50;60.99
39301;BME280;25019;42.626;23.380;2024-01-30T09:52:03;96380.97;;;0.58;60.38
39301;BME280;25019;42.626;23.380;2024-01-30T09:54:31;96313.25;;;0.46;60.01
39301;BME280;25019;42.626;23.380;2024-01-30T09:56:57;96322.72;;;0.86;59.71
39301;BME280;25019;42.626;23.380;2024-01-30T09:59:23;96312.91;;;1.08;59.45
39301;BME280;25019;42.626;23.380;2024-01-30T10:01:50;96319.06;;;1.26;58.76
39301;BME280;25019;42.626;23.380;2024-01-30T10:04:17;96308.28;;;0.72;59.11
39301;BME280;25019;42.626;23.380;2024-01-30T10:06:42;96365.59;;;1.42;58.71
39301;BME280;25019;42.626;23.380;2024-01-30T10:09:08;96364.06;;;1.49;58.03
39301;BME280;25019;42.626;23.380;2024-01-30T10:11:36;96356.44;;;1.56;58.58
39301;BME280;25019;42.626;23.380;2024-01-30T10:14:02;96353.00;;;1.84;57.79
39301;BME280;25019;42.626;23.380;2024-01-30T10:16:28;96347.28;;;1.32;57.54
39301;BME280;25019;42.626;23.380;2024-01-30T10:18:54;96358.72;;;1.69;57.11
39301;BME280;25019;42.626;23.380;2024-01-30T10:21:20;96362.91;;;1.90;57.62
39301;BME280;25019;42.626;23.380;2024-01-30T10:23:46;96353.56;;;1.87;57.93
39301;BME280;25019;42.626;23.380;2024-01-30T10:26:11;96349.06;;;1.98;57.76
39301;BME280;25019;42.626;23.380;2024-01-30T10:28:37;96349.19;;;2.06;57.74
39301;BME280;25019;42.626;23.380;2024-01-30T10:31:03;96343.38;;;1.84;56.98
39301;BME280;25019;42.626;23.380;2024-01-30T10:33:32;96293.81;;;1.35;57.79
39301;BME280;25019;42.626;23.380;2024-01-30T10:36:01;96356.47;;;1.46;59.07
39301;BME280;25019;42.626;23.380;2024-01-30T10:38:29;96358.56;;;1.33;59.17
39301;BME280;25019;42.626;23.380;2024-01-30T10:40:57;96348.31;;;1.59;59.43
39301;BME280;25019;42.626;23.380;2024-01-30T10:43:26;96349.03;;;1.52;59.58
39301;BME280;25019;42.626;23.380;2024-01-30T10:45:57;96294.00;;;1.24;59.51
39301;BME280;25019;42.626;23.380;2024-01-30T10:48:27;96347.81;;;1.74;59.25
39301;BME280;25019;42.626;23.380;2024-01-30T10:50:55;96346.09;;;1.92;58.36
39301;BME280;25019;42.626;23.380;2024-01-30T10:53:23;96296.50;;;1.53;58.55
39301;BME280;25019;42.626;23.380;2024-01-30T10:55:51;96311.56;;;1.41;59.54
39301;BME280;25019;42.626;23.380;2024-01-30T10:58:18;96329.00;;;1.23;59.51
39301;BME280;25019;42.626;23.380;2024-01-30T11:00:45;96293.25;;;0.74;60.23
39301;BME280;25019;42.626;23.380;2024-01-30T11:03:11;96251.69;;;0.81;60.22
39301;BME280;25019;42.626;23.380;2024-01-30T11:05:40;96333.72;;;1.47;61.17
39301;BME280;25019;42.626;23.380;2024-01-30T11:08:13;96336.31;;;1.57;60.01
39301;BME280;25019;42.626;23.380;2024-01-30T11:10:48;96319.41;;;1.41;59.51
39301;BME280;25019;42.626;23.380;2024-01-30T11:13:15;96325.97;;;1.55;59.68
39301;BME280;25019;42.626;23.380;2024-01-30T11:15:41;96277.25;;;1.44;59.73
39301;BME280;25019;42.626;23.380;2024-01-30T11:18:07;96216.78;;;1.38;59.30
39301;BME280;25019;42.626;23.380;2024-01-30T11:20:32;96295.22;;;1.29;59.81
39301;BME280;25019;42.626;23.380;2024-01-30T11:22:59;96324.22;;;1.46;59.59
39301;BME280;25019;42.626;23.380;2024-01-30T11:25:27;96327.00;;;1.44;60.35
39301;BME280;25019;42.626;23.380;2024-01-30T11:27:56;96338.91;;;1.67;60.07
39301;BME280;25019;42.626;23.380;2024-01-30T11:30:24;96332.47;;;1.51;59.90
39301;BME280;25019;42.626;23.380;2024-01-30T11:35:41;96319.81;;;2.02;58.85
39301;BME280;25019;42.626;23.380;2024-01-30T11:38:08;96317.97;;;2.31;59.21
39301;BME280;25019;42.626;23.380;2024-01-30T11:40:36;96325.34;;;2.45;57.97
39301;BME280;25019;42.626;23.380;2024-01-30T11:43:03;96322.41;;;2.30;58.39
39301;BME280;25019;42.626;23.380;2024-01-30T11:45:30;96245.69;;;1.08;59.29
39301;BME280;25019;42.626;23.380;2024-01-30T11:47:56;96325.94;;;1.65;59.84
39301;BME280;25019;42.626;23.380;2024-01-30T11:50:23;96313.41;;;1.87;59.44
39301;BME280;25019;42.626;23.380;2024-01-30T11:52:50;96320.78;;;2.01;59.05
39301;BME280;25019;42.626;23.380;2024-01-30T11:55:15;96313.00;;;1.91;59.64
39301;BME280;25019;42.626;23.380;2024-01-30T11:57:41;96296.03;;;1.86;59.08
39301;BME280;25019;42.626;23.380;2024-01-30T12:00:14;96302.28;;;2.03;59.31
39301;BME280;25019;42.626;23.380;2024-01-30T12:02:40;96302.94;;;1.87;59.21
39301;BME280;25019;42.626;23.380;2024-01-30T12:05:07;96286.97;;;1.80;59.65
39301;BME280;25019;42.626;23.380;2024-01-30T12:07:33;96292.59;;;1.85;59.44
39301;BME280;25019;42.626;23.380;2024-01-30T12:09:59;96297.41;;;1.90;59.29
39301;BME280;25019;42.626;23.380;2024-01-30T12:12:26;96288.09;;;1.49;60.20
39301;BME280;25019;42.626;23.380;2024-01-30T12:14:52;96285.25;;;1.33;60.72
39301;BME280;25019;42.626;23.380;2024-01-30T12:17:27;96281.78;;;1.42;60.65
39301;BME280;25019;42.626;23.380;2024-01-30T12:20:09;96278.09;;;1.63;60.85
39301;BME280;25019;42.626;23.380;2024-01-30T12:25:24;96277.81;;;1.66;60.06
39301;BME280;25019;42.626;23.380;2024-01-30T12:27:50;96269.38;;;1.72;59.87
39301;BME280;25019;42.626;23.380;2024-01-30T12:30:17;96274.06;;;1.69;60.73
39301;BME280;25019;42.626;23.380;2024-01-30T12:32:44;96155.72;;;0.81;60.94
39301;BME280;25019;42.626;23.380;2024-01-30T12:35:15;96208.75;;;1.11;61.27
39301;BME280;25019;42.626;23.380;2024-01-30T12:37:43;96242.63;;;1.23;60.90
39301;BME280;25019;42.626;23.380;2024-01-30T12:40:10;96251.09;;;1.34;60.80
39301;BME280;25019;42.626;23.380;2024-01-30T12:42:37;96256.75;;;1.30;61.09
39301;BME280;25019;42.626;23.380;2024-01-30T12:45:04;96249.75;;;1.30;61.35
39301;BME280;25019;42.626;23.380;2024-01-30T12:47:31;96257.81;;;1.09;61.40
39301;BME280;25019;42.626;23.380;2024-01-30T12:49:57;96187.34;;;0.50;61.76
39301;BME280;25019;42.626;23.380;2024-01-30T12:52:22;96246.59;;;0.79;62.21
39301;BME280;25019;42.626;23.380;2024-01-30T12:54:48;96244.31;;;0.56;62.70